createdAt,value
2018-09-10T00:00:14.870Z,3.47
2018-09-10T00:02:43.184Z,3.47
2018-09-10T00:05:11.434Z,3.10
2018-09-10T00:07:39.689Z,2.92
2018-09-10T00:10:07.996Z,3.30
2018-09-10T00:12:36.220Z,3.00
2018-09-10T00:15:04.526Z,3.10
2018-09-10T00:17:32.812Z,3.50
2018-09-10T00:20:01.053Z,3.25
2018-09-10T00:22:29.292Z,2.98
2018-09-10T00:24:57.571Z,3.20
2018-09-10T00:27:25.836Z,3.20
2018-09-10T00:29:54.064Z,2.65
2018-09-10T00:32:22.373Z,3.83
2018-09-10T00:34:50.728Z,3.02
2018-09-10T00:37:19.085Z,3.25
2018-09-10T00:39:47.435Z,3.02
2018-09-10T00:42:15.667Z,3.33
2018-09-10T00:44:43.972Z,2.87
2018-09-10T00:47:12.221Z,2.70
2018-09-10T00:49:40.513Z,3.27
2018-09-10T00:52:08.762Z,2.50
2018-09-10T00:54:37.068Z,2.60
2018-09-10T00:57:05.313Z,2.50
2018-09-10T00:59:33.587Z,3.02
2018-09-10T01:02:01.849Z,3.40
2018-09-10T01:04:30.141Z,2.40
2018-09-10T01:06:58.450Z,2.75
2018-09-10T01:09:26.873Z,2.90
2018-09-10T01:11:55.273Z,2.55
2018-09-10T01:14:23.565Z,2.95
2018-09-10T01:16:51.810Z,2.98
2018-09-10T01:19:20.054Z,2.80
2018-09-10T01:21:48.329Z,2.85
2018-09-10T01:24:16.604Z,2.35
2018-09-10T01:26:44.834Z,2.60
2018-09-10T01:29:13.076Z,2.72
2018-09-10T01:31:41.326Z,2.45
2018-09-10T01:34:15.004Z,2.37
2018-09-10T01:36:43.244Z,2.90
2018-09-10T01:39:11.501Z,2.80
2018-09-10T01:41:39.822Z,2.75
2018-09-10T01:44:08.165Z,2.27
2018-09-10T01:46:36.427Z,3.83
2018-09-10T01:49:04.700Z,3.02
2018-09-10T01:51:33.019Z,3.25
2018-09-10T01:54:01.910Z,2.50
2018-09-10T01:56:30.221Z,3.22
2018-09-10T01:58:58.562Z,3.00
2018-09-10T02:01:26.793Z,3.30
2018-09-10T02:03:55.085Z,3.12
2018-09-10T02:06:23.350Z,2.75
2018-09-10T02:08:51.628Z,3.05
2018-09-10T02:11:20.915Z,2.72
2018-09-10T02:13:49.202Z,2.92
2018-09-10T02:16:17.826Z,2.55
2018-09-10T02:18:46.940Z,2.58
2018-09-10T02:21:15.748Z,2.27
2018-09-10T02:23:44.095Z,2.33
2018-09-10T02:26:12.305Z,2.30
2018-09-10T02:28:40.646Z,2.50
2018-09-10T02:31:08.952Z,2.80
2018-09-10T02:33:37.283Z,2.47
2018-09-10T02:36:05.812Z,2.20
2018-09-10T02:38:34.214Z,2.08
2018-09-10T02:41:02.543Z,2.37
2018-09-10T02:43:30.898Z,2.10
2018-09-10T02:45:59.196Z,2.47
2018-09-10T02:48:27.449Z,3.10
2018-09-10T02:50:55.730Z,2.62
2018-09-10T02:53:23.989Z,2.90
2018-09-10T02:55:52.258Z,2.22
2018-09-10T02:58:20.532Z,2.72
2018-09-10T03:00:48.817Z,2.65
2018-09-10T03:03:17.021Z,2.55
2018-09-10T03:05:45.398Z,2.90
2018-09-10T03:08:13.670Z,3.12
2018-09-10T03:10:42.298Z,2.62
2018-09-10T03:13:10.547Z,3.20
2018-09-10T03:15:38.824Z,3.15
2018-09-10T03:18:06.840Z,2.85
2018-09-10T03:20:35.001Z,3.05
2018-09-10T03:23:03.329Z,3.30
2018-09-10T03:25:31.551Z,3.00
2018-09-10T03:27:59.796Z,3.40
2018-09-10T03:30:28.091Z,3.20
2018-09-10T03:32:56.321Z,3.15
2018-09-10T03:35:24.958Z,3.12
2018-09-10T03:37:53.251Z,2.92
2018-09-10T03:40:21.515Z,3.00
2018-09-10T03:42:49.840Z,3.35
2018-09-10T03:45:18.108Z,2.95
2018-09-10T03:47:46.396Z,3.15
2018-09-10T03:50:14.681Z,3.50
2018-09-10T03:52:42.893Z,3.40
2018-09-10T03:55:11.284Z,3.17
2018-09-10T03:57:39.535Z,3.37
2018-09-10T04:00:08.066Z,3.40
2018-09-10T04:02:36.347Z,3.30
2018-09-10T04:05:04.592Z,3.45
2018-09-10T04:07:32.856Z,3.72
2018-09-10T04:10:01.137Z,3.92
2018-09-10T04:12:29.402Z,4.08
2018-09-10T04:14:57.647Z,3.47
2018-09-10T04:17:26.003Z,4.60
2018-09-10T04:19:59.688Z,5.17
2018-09-10T04:22:27.951Z,4.40
2018-09-10T04:24:56.219Z,4.40
2018-09-10T04:27:24.532Z,4.47
2018-09-10T04:29:52.842Z,4.42
2018-09-10T04:32:21.142Z,4.53
2018-09-10T04:34:49.470Z,3.87
2018-09-10T04:37:17.757Z,4.53
2018-09-10T04:39:46.036Z,3.77
2018-09-10T04:42:14.441Z,4.75
2018-09-10T04:44:42.702Z,4.85
2018-09-10T04:47:11.008Z,5.55
2018-09-10T04:49:39.364Z,4.92
2018-09-10T04:52:07.639Z,4.47
2018-09-10T04:54:35.893Z,5.33
2018-09-10T04:57:04.171Z,5.40
2018-09-10T04:59:32.459Z,5.12
2018-09-10T05:02:00.707Z,4.67
2018-09-10T05:04:29.041Z,5.08
2018-09-10T05:06:57.335Z,5.60
2018-09-10T05:09:25.641Z,5.25
2018-09-10T05:11:53.907Z,5.30
2018-09-10T05:14:22.178Z,5.03
2018-09-10T05:16:50.458Z,4.67
2018-09-10T05:19:18.766Z,5.15
2018-09-10T05:21:47.064Z,5.78
2018-09-10T05:24:15.372Z,5.95
2018-09-10T05:26:43.674Z,4.97
2018-09-10T05:29:12.565Z,4.97
2018-09-10T05:31:40.868Z,4.90
2018-09-10T05:34:09.189Z,5.95
2018-09-10T05:36:37.478Z,9.33
2018-09-10T05:39:07.016Z,8.65
2018-09-10T05:41:35.347Z,5.15
2018-09-10T05:44:03.626Z,5.72
2018-09-10T05:46:31.879Z,5.78
2018-09-10T05:49:00.148Z,6.22
2018-09-10T05:51:28.401Z,6.28
2018-09-10T05:53:56.690Z,5.53
2018-09-10T05:56:24.976Z,5.30
2018-09-10T05:58:53.523Z,5.67
2018-09-10T06:01:21.851Z,5.90
2018-09-10T06:03:50.177Z,5.67
2018-09-10T06:06:18.495Z,6.20
2018-09-10T06:08:46.822Z,6.22
2018-09-10T06:11:15.088Z,6.50
2018-09-10T06:13:43.409Z,5.47
2018-09-10T06:16:11.714Z,5.33
2018-09-10T06:18:39.952Z,5.95
2018-09-10T06:21:08.248Z,7.08
2018-09-10T06:23:36.537Z,6.62
2018-09-10T06:26:04.804Z,7.22
2018-09-10T06:28:33.047Z,6.60
2018-09-10T06:31:01.347Z,6.60
2018-09-10T06:33:29.601Z,6.87
2018-09-10T06:35:57.845Z,6.80
2018-09-10T06:38:26.150Z,6.97
2018-09-10T06:40:54.453Z,7.35
2018-09-10T06:43:22.770Z,7.42
2018-09-10T06:45:51.298Z,7.22
2018-09-10T06:48:19.656Z,8.18
2018-09-10T06:50:47.950Z,7.08
2018-09-10T06:53:16.282Z,7.05
2018-09-10T06:55:44.529Z,8.48
2018-09-10T06:58:12.771Z,8.25
2018-09-10T07:00:41.360Z,8.23
2018-09-10T07:03:09.645Z,8.20
2018-09-10T07:05:37.933Z,7.87
2018-09-10T07:08:06.278Z,7.87
2018-09-10T07:10:34.532Z,8.50
2018-09-10T07:13:02.793Z,8.05
2018-09-10T07:15:31.012Z,8.68
2018-09-10T07:17:59.256Z,8.75
2018-09-10T07:20:27.480Z,8.30
2018-09-10T07:22:55.833Z,8.58
2018-09-10T07:25:24.106Z,8.58
2018-09-10T07:27:52.352Z,8.55
2018-09-10T07:30:20.713Z,8.58
2018-09-10T07:32:48.953Z,8.70
2018-09-10T07:35:17.221Z,9.40
2018-09-10T07:37:45.430Z,9.13
2018-09-10T07:40:13.700Z,9.25
2018-09-10T07:42:41.965Z,9.18
2018-09-10T07:45:10.210Z,9.80
2018-09-10T07:47:38.462Z,8.88
2018-09-10T07:50:06.728Z,8.23
2018-09-10T07:52:35.005Z,9.75
2018-09-10T07:55:03.249Z,9.03
2018-09-10T07:57:31.526Z,8.88
2018-09-10T08:00:00.161Z,9.35
2018-09-10T08:02:28.482Z,9.68
2018-09-10T08:04:56.706Z,9.45
2018-09-10T08:07:24.950Z,10.38
2018-09-10T08:09:53.469Z,9.58
2018-09-10T08:12:21.721Z,10.08
2018-09-10T08:14:49.987Z,10.18
2018-09-10T08:17:18.232Z,9.93
2018-09-10T08:19:46.465Z,9.90
2018-09-10T08:22:14.708Z,11.20
2018-09-10T08:24:42.961Z,11.05
2018-09-10T08:27:11.229Z,10.72
2018-09-10T08:29:39.543Z,11.18
2018-09-10T08:32:07.853Z,10.85
2018-09-10T08:34:36.248Z,10.85
2018-09-10T08:37:05.032Z,10.35
2018-09-10T08:39:33.514Z,11.68
2018-09-10T08:42:01.883Z,10.48
2018-09-10T08:44:30.502Z,10.68
2018-09-10T08:46:58.971Z,11.05
2018-09-10T08:49:27.262Z,11.45
2018-09-10T08:51:55.539Z,11.85
2018-09-10T08:54:24.000Z,10.48
2018-09-10T08:56:52.149Z,11.28
2018-09-10T08:59:20.400Z,10.80
2018-09-10T09:01:48.700Z,10.32
2018-09-10T09:04:17.750Z,10.45
2018-09-10T09:06:46.012Z,9.70
2018-09-10T09:09:14.316Z,10.43
2018-09-10T09:11:42.709Z,11.08
2018-09-10T09:14:10.959Z,10.05
2018-09-10T09:16:39.214Z,10.55
2018-09-10T09:19:07.452Z,11.03
2018-09-10T09:21:35.744Z,10.58
2018-09-10T09:24:04.022Z,9.60
2018-09-10T09:26:32.281Z,10.63
2018-09-10T09:29:00.514Z,11.33
2018-09-10T09:31:28.767Z,9.60
2018-09-10T09:33:57.046Z,9.70
2018-09-10T09:36:30.616Z,10.53
2018-09-10T09:39:04.270Z,9.75
2018-09-10T09:41:37.731Z,10.80
2018-09-10T09:44:11.537Z,8.60
2018-09-10T09:46:39.761Z,9.48
2018-09-10T09:49:08.077Z,9.83
2018-09-10T09:51:36.325Z,9.15
2018-09-10T09:54:04.593Z,9.33
2018-09-10T09:56:32.851Z,8.85
2018-09-10T09:59:01.060Z,8.80
2018-09-10T10:01:34.803Z,8.75
2018-09-10T10:04:08.530Z,9.05
2018-09-10T10:06:37.024Z,9.00
2018-09-10T10:09:08.443Z,8.90
2018-09-10T10:11:36.739Z,8.70
2018-09-10T10:14:05.188Z,9.30
2018-09-10T10:16:33.447Z,9.48
2018-09-10T10:19:01.692Z,8.73
2018-09-10T10:21:29.943Z,9.70
2018-09-10T10:23:58.327Z,9.13
2018-09-10T10:26:26.668Z,8.80
2018-09-10T10:28:54.989Z,8.38
2018-09-10T10:31:23.576Z,8.60
2018-09-10T10:33:51.905Z,7.95
2018-09-10T10:36:20.156Z,7.42
2018-09-10T10:38:48.464Z,9.15
2018-09-10T10:41:16.707Z,8.70
2018-09-10T10:43:44.971Z,9.35
2018-09-10T10:46:13.247Z,7.90
2018-09-10T10:48:41.536Z,8.78
2018-09-10T10:51:09.792Z,7.97
2018-09-10T10:53:38.108Z,8.60
2018-09-10T10:56:06.338Z,9.25
2018-09-10T10:58:34.646Z,7.55
2018-09-10T11:01:02.942Z,8.73
2018-09-10T11:03:31.238Z,7.62
2018-09-10T11:05:59.544Z,7.92
2018-09-10T11:08:27.786Z,7.83
2018-09-10T11:10:56.079Z,8.30
2018-09-10T11:13:24.888Z,7.47
2018-09-10T11:15:53.177Z,7.25
2018-09-10T11:18:21.511Z,6.70
2018-09-10T11:20:49.798Z,7.17
2018-09-10T11:23:18.108Z,6.80
2018-09-10T11:25:46.367Z,6.62
2018-09-10T11:28:14.637Z,5.70
2018-09-10T11:30:42.905Z,6.65
2018-09-10T11:33:11.171Z,7.30
2018-09-10T11:35:39.443Z,6.55
2018-09-10T11:38:07.766Z,6.95
2018-09-10T11:40:36.097Z,5.85
2018-09-10T11:43:04.414Z,5.67
2018-09-10T11:45:32.658Z,6.20
2018-09-10T11:48:00.889Z,7.30
2018-09-10T11:50:29.196Z,6.03
2018-09-10T11:52:57.515Z,5.90
2018-09-10T11:55:25.806Z,5.90
2018-09-10T11:57:54.019Z,5.10
2018-09-10T12:00:22.342Z,5.50
2018-09-10T12:02:50.580Z,6.00
2018-09-10T12:05:18.882Z,5.58
2018-09-10T12:07:47.126Z,5.45
2018-09-10T12:10:15.439Z,4.90
2018-09-10T12:12:43.776Z,4.92
2018-09-10T12:15:12.083Z,5.10
2018-09-10T12:17:40.449Z,6.58
2018-09-10T12:20:08.701Z,5.40
2018-09-10T12:22:37.027Z,5.80
2018-09-10T12:25:05.297Z,4.67
2018-09-10T12:27:33.565Z,5.15
2018-09-10T12:30:01.852Z,5.08
2018-09-10T12:32:30.226Z,5.05
2018-09-10T12:34:58.427Z,6.03
2018-09-10T12:37:26.684Z,4.22
2018-09-10T12:39:54.961Z,4.85
2018-09-10T12:42:23.244Z,4.75
2018-09-10T12:44:51.535Z,5.15
2018-09-10T12:47:19.848Z,4.00
2018-09-10T12:49:48.213Z,4.25
2018-09-10T12:52:16.526Z,4.33
2018-09-10T12:54:44.826Z,5.10
2018-09-10T12:57:13.320Z,4.95
2018-09-10T12:59:41.598Z,5.00
2018-09-10T13:02:09.814Z,5.17
2018-09-10T13:04:38.072Z,5.08
2018-09-10T13:07:06.439Z,5.20
2018-09-10T13:09:34.718Z,4.60
2018-09-10T13:12:02.995Z,4.85
2018-09-10T13:14:31.448Z,4.22
2018-09-10T13:16:59.697Z,5.08
2018-09-10T13:19:28.107Z,4.08
2018-09-10T13:21:56.376Z,4.40
2018-09-10T13:24:24.698Z,4.53
2018-09-10T13:26:53.052Z,3.98
2018-09-10T13:29:21.392Z,4.17
2018-09-10T13:31:49.724Z,4.10
2018-09-10T13:34:18.004Z,3.40
2018-09-10T13:36:46.376Z,3.90
2018-09-10T13:39:14.584Z,3.92
2018-09-10T13:41:42.848Z,4.05
2018-09-10T13:44:11.157Z,3.87
2018-09-10T13:46:39.435Z,2.55
2018-09-10T13:49:07.699Z,1.85
2018-09-10T13:51:36.004Z,1.62
2018-09-10T13:54:04.357Z,1.95
2018-09-10T13:56:32.573Z,1.85
2018-09-10T13:59:00.828Z,2.10
2018-09-10T14:01:29.138Z,3.05
2018-09-10T14:03:57.531Z,2.15
2018-09-10T14:06:27.692Z,1.82
2018-09-10T14:08:56.127Z,1.72
2018-09-10T14:11:24.422Z,1.70
2018-09-10T14:13:52.710Z,1.92
2018-09-10T14:16:20.953Z,1.72
2018-09-10T14:18:49.216Z,1.87
2018-09-10T14:21:17.491Z,1.98
2018-09-10T14:23:45.794Z,1.90
2018-09-10T14:26:14.074Z,1.90
2018-09-10T14:28:42.324Z,1.70
2018-09-10T14:31:10.584Z,1.80
2018-09-10T14:33:38.826Z,2.12
2018-09-10T14:36:07.831Z,2.00
2018-09-10T14:38:36.178Z,2.25
2018-09-10T14:41:04.526Z,2.45
2018-09-10T14:43:32.834Z,2.00
2018-09-10T14:46:01.086Z,2.42
2018-09-10T14:48:29.324Z,1.98
2018-09-10T14:50:57.633Z,2.00
2018-09-10T14:53:25.959Z,1.98
2018-09-10T14:55:54.288Z,2.60
2018-09-10T14:58:22.677Z,2.72
2018-09-10T15:00:51.311Z,2.37
2018-09-10T15:03:19.543Z,2.20
2018-09-10T15:05:47.838Z,2.47
2018-09-10T15:08:16.096Z,2.87
2018-09-10T15:10:44.378Z,2.12
2018-09-10T15:13:12.683Z,3.33
2018-09-10T15:15:40.985Z,5.22
2018-09-10T15:18:09.354Z,8.75
2018-09-10T15:20:37.765Z,3.52
2018-09-10T15:23:06.142Z,3.90
2018-09-10T15:25:34.472Z,3.52
2018-09-10T15:28:02.713Z,3.47
2018-09-10T15:30:30.975Z,13.60
2018-09-10T15:32:59.238Z,3.33
2018-09-10T15:35:27.513Z,4.30
2018-09-10T15:37:55.810Z,3.08
2018-09-10T15:40:24.055Z,2.98
2018-09-10T15:42:52.338Z,3.60
2018-09-10T15:45:20.693Z,3.42
2018-09-10T15:47:48.900Z,1.95
2018-09-10T15:50:17.215Z,2.20
2018-09-10T15:52:45.548Z,3.15
2018-09-10T15:55:13.812Z,3.42
2018-09-10T15:57:42.131Z,4.62
2018-09-10T16:00:10.477Z,4.85
2018-09-10T16:02:38.688Z,2.20
2018-09-10T16:05:07.023Z,2.98
2018-09-10T16:07:35.309Z,2.70
2018-09-10T16:10:03.584Z,2.60
2018-09-10T16:12:31.843Z,3.58
2018-09-10T16:15:00.149Z,3.98
2018-09-10T16:17:28.432Z,3.00
2018-09-10T16:19:56.702Z,2.92
2018-09-10T16:22:25.011Z,2.98
2018-09-10T16:24:53.275Z,2.40
2018-09-10T16:27:21.566Z,2.85
2018-09-10T16:29:50.873Z,2.55
2018-09-10T16:32:19.119Z,2.50
2018-09-10T16:34:47.375Z,2.33
2018-09-10T16:37:15.633Z,3.15
2018-09-10T16:39:43.963Z,2.65
2018-09-10T16:42:12.278Z,2.45
2018-09-10T16:44:40.735Z,2.40
2018-09-10T16:47:09.013Z,3.42
2018-09-10T16:49:37.304Z,2.70
2018-09-10T16:52:05.597Z,3.12
2018-09-10T16:54:33.925Z,2.22
2018-09-10T16:57:02.116Z,1.70
2018-09-10T16:59:30.474Z,2.52
2018-09-10T17:01:58.784Z,2.27
2018-09-10T17:04:27.140Z,2.90
2018-09-10T17:06:56.195Z,2.45
2018-09-10T17:09:24.494Z,2.40
2018-09-10T17:11:52.951Z,2.05
2018-09-10T17:14:21.222Z,2.02
2018-09-10T17:16:49.471Z,2.50
2018-09-10T17:19:17.798Z,2.08
2018-09-10T17:21:46.083Z,2.55
2018-09-10T17:24:14.354Z,3.33
2018-09-10T17:26:42.728Z,2.35
2018-09-10T17:29:11.029Z,2.08
2018-09-10T17:31:39.571Z,1.90
2018-09-10T17:34:07.902Z,2.00
2018-09-10T17:36:36.280Z,2.30
2018-09-10T17:39:06.928Z,2.40
2018-09-10T17:41:35.208Z,1.90
2018-09-10T17:44:03.525Z,2.60
2018-09-10T17:46:31.881Z,2.75
2018-09-10T17:49:00.156Z,2.35
2018-09-10T17:51:28.377Z,2.22
2018-09-10T17:53:56.718Z,2.60
2018-09-10T17:56:24.990Z,2.55
2018-09-10T17:58:53.318Z,2.42
2018-09-10T18:01:21.573Z,2.98
2018-09-10T18:03:49.868Z,2.35
2018-09-10T18:06:18.148Z,2.27
2018-09-10T18:08:46.424Z,2.30
2018-09-10T18:11:14.711Z,2.77
2018-09-10T18:13:43.010Z,3.37
2018-09-10T18:16:11.344Z,3.60
2018-09-10T18:18:39.640Z,2.83
2018-09-10T18:21:08.936Z,3.02
2018-09-10T18:23:37.261Z,2.58
2018-09-10T18:26:05.575Z,2.65
2018-09-10T18:28:33.838Z,2.87
2018-09-10T18:31:02.068Z,2.55
2018-09-10T18:33:30.321Z,2.65
2018-09-10T18:35:58.593Z,3.15
2018-09-10T18:38:26.853Z,2.67
2018-09-10T18:40:55.109Z,3.08
2018-09-10T18:43:23.424Z,3.60
2018-09-10T18:45:51.659Z,3.10
2018-09-10T18:48:19.925Z,3.15
2018-09-10T18:50:48.243Z,2.83
2018-09-10T18:53:16.520Z,2.47
2018-09-10T18:55:44.913Z,2.98
2018-09-10T18:58:13.238Z,2.45
2018-09-10T19:00:41.596Z,2.60
2018-09-10T19:03:09.804Z,3.25
2018-09-10T19:05:38.090Z,3.67
2018-09-10T19:08:06.360Z,3.20
2018-09-10T19:10:34.820Z,3.50
2018-09-10T19:13:03.114Z,3.33
2018-09-10T19:15:31.424Z,3.52
2018-09-10T19:17:59.728Z,2.95
2018-09-10T19:20:28.112Z,3.17
2018-09-10T19:22:56.393Z,3.40
2018-09-10T19:25:24.722Z,3.12
2018-09-10T19:27:53.029Z,3.27
2018-09-10T19:30:21.361Z,3.92
2018-09-10T19:32:49.914Z,3.30
2018-09-10T19:35:18.257Z,3.95
2018-09-10T19:37:46.530Z,3.50
2018-09-10T19:40:14.804Z,2.98
2018-09-10T19:42:43.047Z,3.27
2018-09-10T19:45:11.324Z,3.98
2018-09-10T19:47:39.561Z,4.10
2018-09-10T19:50:08.475Z,4.00
2018-09-10T19:52:36.746Z,3.77
2018-09-10T19:55:05.216Z,3.83
2018-09-10T19:57:33.442Z,3.55
2018-09-10T20:00:02.532Z,4.00
2018-09-10T20:02:30.853Z,3.33
2018-09-10T20:04:59.193Z,4.05
2018-09-10T20:07:27.460Z,4.47
2018-09-10T20:09:55.909Z,3.70
2018-09-10T20:12:24.169Z,4.12
2018-09-10T20:14:52.574Z,4.12
2018-09-10T20:17:20.838Z,3.83
2018-09-10T20:19:49.110Z,4.28
2018-09-10T20:22:18.174Z,5.08
2018-09-10T20:24:46.473Z,4.83
2018-09-10T20:27:15.383Z,4.70
2018-09-10T20:29:43.699Z,4.33
2018-09-10T20:32:11.928Z,4.45
2018-09-10T20:34:40.227Z,4.55
2018-09-10T20:37:08.498Z,4.58
2018-09-10T20:39:36.761Z,4.78
2018-09-10T20:42:05.659Z,4.85
2018-09-10T20:44:33.925Z,4.90
2018-09-10T20:47:02.196Z,4.95
2018-09-10T20:49:30.527Z,5.62
2018-09-10T20:51:58.740Z,6.03
2018-09-10T20:54:27.024Z,6.17
2018-09-10T20:56:55.320Z,6.08
2018-09-10T20:59:23.574Z,5.80
2018-09-10T21:01:51.871Z,6.25
2018-09-10T21:04:20.232Z,6.17
2018-09-10T21:06:48.485Z,5.83
2018-09-10T21:09:16.740Z,6.03
2018-09-10T21:11:45.068Z,6.17
2018-09-10T21:14:13.276Z,5.97
2018-09-10T21:16:41.569Z,6.58
2018-09-10T21:19:09.917Z,5.90
2018-09-10T21:21:38.282Z,6.58
2018-09-10T21:24:13.252Z,6.55
2018-09-10T21:26:41.880Z,6.25
2018-09-10T21:29:10.173Z,6.45
2018-09-10T21:31:38.484Z,6.25
2018-09-10T21:34:07.085Z,6.00
2018-09-10T21:36:35.354Z,6.15
2018-09-10T21:39:03.713Z,6.10
2018-09-10T21:41:31.951Z,7.60
2018-09-10T21:44:00.213Z,7.58
2018-09-10T21:46:28.589Z,6.80
2018-09-10T21:48:56.867Z,6.78
2018-09-10T21:51:25.178Z,8.13
2018-09-10T21:53:53.492Z,7.10
2018-09-10T21:56:21.762Z,7.50
2018-09-10T21:58:50.061Z,8.15
2018-09-10T22:01:18.328Z,8.00
2018-09-10T22:03:46.613Z,8.30
2018-09-10T22:06:14.934Z,8.60
2018-09-10T22:08:43.222Z,8.20
2018-09-10T22:11:11.511Z,8.45
2018-09-10T22:13:39.786Z,8.45
2018-09-10T22:16:08.084Z,8.38
2018-09-10T22:18:36.332Z,8.20
2018-09-10T22:21:04.867Z,7.60
2018-09-10T22:23:33.142Z,7.80
2018-09-10T22:26:01.458Z,7.30
2018-09-10T22:28:29.701Z,7.95
2018-09-10T22:30:57.958Z,6.37
2018-09-10T22:33:26.225Z,7.55
2018-09-10T22:35:54.487Z,7.30
2018-09-10T22:38:22.747Z,6.67
2018-09-10T22:40:51.105Z,7.40
2018-09-10T22:43:19.807Z,7.37
2018-09-10T22:45:48.082Z,6.97
2018-09-10T22:48:16.365Z,6.72
2018-09-10T22:50:44.620Z,7.90
2018-09-10T22:53:12.818Z,6.97
2018-09-10T22:55:41.134Z,7.45
2018-09-10T22:58:09.530Z,7.30
2018-09-10T23:00:37.780Z,7.83
2018-09-10T23:03:06.000Z,7.50
2018-09-10T23:05:34.267Z,7.60
2018-09-10T23:08:02.716Z,7.30
2018-09-10T23:10:31.005Z,7.37
2018-09-10T23:12:59.298Z,6.47
2018-09-10T23:15:28.809Z,6.58
2018-09-10T23:17:57.125Z,7.40
2018-09-10T23:20:25.391Z,6.00
2018-09-10T23:22:53.704Z,6.10
2018-09-10T23:25:22.079Z,6.55
2018-09-10T23:27:50.369Z,5.80
2018-09-10T23:30:18.660Z,6.03
2018-09-10T23:32:46.930Z,6.55
2018-09-10T23:35:15.195Z,5.40
2018-09-10T23:37:43.469Z,6.50
2018-09-10T23:40:11.738Z,4.95
2018-09-10T23:42:40.010Z,6.20
2018-09-10T23:45:08.238Z,6.33
2018-09-10T23:47:36.484Z,6.08
2018-09-10T23:50:05.196Z,5.47
2018-09-10T23:52:33.496Z,5.10
2018-09-10T23:55:01.849Z,6.10
2018-09-10T23:57:30.145Z,6.67
2018-09-10T23:59:59.407Z,6.15
